Alpaugh, California
Current Conditions -  °F | °C
As of 4:55 PM on Wednesday 22 Oct 2014 (Local Time) from KPTV Reporting Station
Scattered Clouds Scattered Clouds  
Wind Chill: 23°   Ceiling: Unl
Heat Index: 23°   Visibility: 10mi
Dew Point:   Wind: 7mph
Humidity: 36%   Direction: 250°WSW
Pressure: 30.01"   Gusts: NA
Location:  35.89°N, 119.49°W
Report Text: KPTV 222355Z 25006KT 10SM SCT023 23/07 A3001 RMK AO1 10240 20180 402400080 57010
Loading
Personal Weather Stations






























Interactive Weather Map
Tropical Storm Tracking
New forecast layout! Learn more

10-Day Weather Forecast

Advertisements
Track Severe Weather on mobile